Time;durP1;ratioP1;P1;durP2;ratioP2;P2;SDS_P1;SDS_P2;PMS_P1;PMS_P2;Temp;Humidity;BMP_temperature;BMP_pressure;BME280_temperature;BME280_humidity;BME280_pressure;Samples;Min_cycle;Max_cycle;Signal;HPM_P1;HPM_P2
2023/03/18 00:01:06;;;;;;;5.43;2.77;;;11.30;99.90;;;;;;4819083;29;20333;-57
2023/03/18 00:03:36;;;;;;;4.73;3.00;;;11.30;99.90;;;;;;4818916;29;20772;-58
2023/03/18 00:06:08;;;;;;;5.53;3.20;;;11.30;99.90;;;;;;4819384;29;20646;-59
2023/03/18 00:08:38;;;;;;;4.20;3.10;;;11.30;99.90;;;;;;4820063;29;20837;-58
2023/03/18 00:11:06;;;;;;;5.37;3.30;;;11.30;99.90;;;;;;4819349;29;20374;-57
2023/03/18 00:13:34;;;;;;;5.93;3.70;;;11.30;99.90;;;;;;4822304;29;20259;-57
2023/03/18 00:16:03;;;;;;;4.70;3.20;;;11.30;99.90;;;;;;4821828;29;20711;-58
2023/03/18 00:18:33;;;;;;;3.77;3.30;;;11.30;99.90;;;;;;4822010;29;20254;-59
2023/03/18 00:21:02;;;;;;;4.63;3.33;;;11.30;99.90;;;;;;4822197;29;20244;-58
2023/03/18 00:23:33;;;;;;;4.60;3.30;;;11.30;99.90;;;;;;4822264;29;20238;-58
2023/03/18 00:26:02;;;;;;;4.10;3.13;;;11.30;99.90;;;;;;4834961;29;20237;-58
2023/03/18 00:28:31;;;;;;;4.53;3.70;;;11.30;99.90;;;;;;4831518;29;20267;-57
2023/03/18 00:31:07;;;;;;;4.90;3.27;;;11.30;99.90;;;;;;4817594;29;20256;-57
2023/03/18 00:33:36;;;;;;;4.63;3.60;;;11.30;99.90;;;;;;4808068;29;20287;-57
2023/03/18 00:36:06;;;;;;;6.67;3.63;;;11.30;99.90;;;;;;4808210;29;20715;-57
2023/03/18 00:38:35;;;;;;;5.27;3.43;;;11.30;99.90;;;;;;4807956;29;20226;-58
2023/03/18 00:41:10;;;;;;;4.37;3.10;;;11.30;99.90;;;;;;4808146;29;20242;-57
2023/03/18 00:43:44;;;;;;;5.53;3.30;;;11.30;99.90;;;;;;4807980;29;20706;-58
2023/03/18 00:46:15;;;;;;;5.17;3.37;;;11.40;99.90;;;;;;4807998;29;20231;-58
2023/03/18 00:48:43;;;;;;;7.23;3.37;;;11.40;99.90;;;;;;4820262;29;20781;-58
2023/03/18 00:51:13;;;;;;;6.03;3.30;;;11.40;99.90;;;;;;4834760;29;20255;-57
2023/03/18 00:53:43;;;;;;;4.80;3.43;;;11.40;99.90;;;;;;4842958;29;20250;-58
2023/03/18 00:56:13;;;;;;;4.27;3.33;;;11.40;99.90;;;;;;4827941;29;20657;-58
2023/03/18 00:58:41;;;;;;;4.27;3.10;;;11.40;99.90;;;;;;4824388;29;20248;-58
2023/03/18 01:01:11;;;;;;;4.73;3.30;;;11.40;99.90;;;;;;4816420;29;20243;-58
2023/03/18 01:03:41;;;;;;;6.97;2.73;;;11.50;99.90;;;;;;4806338;29;20236;-58
2023/03/18 01:06:11;;;;;;;5.33;3.23;;;11.50;99.90;;;;;;4813556;29;20325;-58
2023/03/18 01:08:41;;;;;;;5.23;3.20;;;11.50;99.90;;;;;;4824222;29;20294;-58
2023/03/18 01:11:10;;;;;;;4.67;3.27;;;11.50;99.90;;;;;;4825642;29;20696;-59
2023/03/18 01:13:39;;;;;;;6.13;3.43;;;11.50;99.90;;;;;;4825436;29;20718;-57
2023/03/18 01:16:08;;;;;;;6.00;3.27;;;11.40;99.90;;;;;;4824337;29;20243;-58
2023/03/18 01:18:37;;;;;;;5.57;3.40;;;11.30;99.90;;;;;;4825360;29;20259;-58
2023/03/18 01:21:06;;;;;;;4.70;3.20;;;11.30;99.90;;;;;;4828852;29;20317;-58
2023/03/18 01:23:38;;;;;;;5.93;3.63;;;11.20;99.90;;;;;;4841457;29;20242;-58
2023/03/18 01:26:09;;;;;;;4.83;3.37;;;11.20;99.90;;;;;;4829610;29;20239;-58
2023/03/18 01:28:41;;;;;;;5.67;3.40;;;11.20;99.90;;;;;;4823780;29;20265;-58
2023/03/18 01:31:09;;;;;;;3.70;3.30;;;11.30;99.90;;;;;;4814903;29;20612;-58
2023/03/18 01:33:39;;;;;;;5.57;3.40;;;11.30;99.90;;;;;;4805837;29;20232;-57
2023/03/18 01:36:08;;;;;;;5.20;3.60;;;11.20;99.90;;;;;;4807149;29;20281;-58
2023/03/18 01:38:36;;;;;;;4.00;3.27;;;11.20;99.90;;;;;;4806970;29;20232;-57
2023/03/18 01:41:12;;;;;;;5.90;3.77;;;11.10;99.90;;;;;;4805784;29;20245;-58
2023/03/18 01:43:42;;;;;;;4.13;3.23;;;11.10;99.90;;;;;;4805569;29;20338;-58
2023/03/18 01:46:33;;;;;;;5.60;3.90;;;11.00;99.90;;;;;;4840301;29;20302;-57
2023/03/18 01:49:05;;;;;;;4.50;3.60;;;11.00;99.90;;;;;;4826633;29;20239;-58
2023/03/18 01:51:33;;;;;;;4.57;3.47;;;10.90;99.90;;;;;;4845640;29;20230;-58
2023/03/18 01:54:04;;;;;;;5.57;3.60;;;10.90;99.90;;;;;;4843109;29;20230;-58
2023/03/18 01:56:37;;;;;;;5.53;3.27;;;10.90;99.90;;;;;;4825636;29;20310;-57
2023/03/18 01:59:06;;;;;;;5.17;3.37;;;10.90;99.90;;;;;;4820995;29;20733;-58
2023/03/18 02:01:39;;;;;;;4.87;3.33;;;10.90;99.90;;;;;;4816402;29;20251;-62
2023/03/18 02:04:10;;;;;;;7.50;3.80;;;10.90;99.90;;;;;;4824131;29;20238;-62
2023/03/18 02:06:42;;;;;;;7.83;3.60;;;10.80;99.90;;;;;;4821637;29;20250;-62
2023/03/18 02:09:11;;;;;;;6.37;3.93;;;10.80;99.90;;;;;;4821433;29;20248;-62
2023/03/18 02:11:48;;;;;;;7.70;4.00;;;10.80;99.90;;;;;;4821809;29;20235;-60
2023/03/18 02:14:22;;;;;;;7.23;3.73;;;10.70;99.90;;;;;;4821696;29;20239;-62
2023/03/18 02:16:55;;;;;;;6.43;3.87;;;10.70;99.90;;;;;;4822849;29;20245;-62
2023/03/18 02:19:36;;;;;;;7.63;4.03;;;10.70;99.90;;;;;;4842949;29;20234;-62
2023/03/18 02:22:16;;;;;;;5.47;3.63;;;10.80;99.90;;;;;;4858944;29;20249;-62
2023/03/18 02:24:55;;;;;;;5.67;3.67;;;10.70;99.90;;;;;;4854499;29;20243;-62
2023/03/18 02:27:26;;;;;;;5.40;3.50;;;10.70;99.90;;;;;;4840943;29;20746;-62
2023/03/18 02:29:59;;;;;;;7.33;4.30;;;10.70;99.90;;;;;;4846403;29;20235;-62
2023/03/18 02:32:32;;;;;;;4.47;3.80;;;10.70;99.90;;;;;;4821078;29;20271;-62
2023/03/18 02:35:07;;;;;;;6.50;3.90;;;10.60;99.90;;;;;;4819934;29;20219;-62
2023/03/18 02:37:37;;;;;;;10.57;4.17;;;10.60;99.90;;;;;;4815313;29;20306;-62
2023/03/18 02:40:14;;;;;;;7.67;4.10;;;10.60;99.90;;;;;;4816292;29;20279;-62
2023/03/18 02:42:44;;;;;;;9.33;5.07;;;10.60;99.90;;;;;;4821513;29;20659;-62
2023/03/18 02:45:28;;;;;;;8.43;4.50;;;10.60;99.90;;;;;;4823005;29;20246;-62
2023/03/18 02:48:17;;;;;;;8.30;4.37;;;10.60;99.90;;;;;;4831621;29;20235;-62
2023/03/18 02:50:46;;;;;;;7.30;4.40;;;10.50;99.90;;;;;;4847698;29;20269;-62
2023/03/18 02:53:15;;;;;;;7.33;3.97;;;10.40;99.90;;;;;;4857235;29;20259;-62
2023/03/18 02:55:43;;;;;;;6.90;4.57;;;10.40;99.90;;;;;;4844714;29;20253;-62
2023/03/18 02:58:13;;;;;;;7.27;4.70;;;10.40;99.90;;;;;;4839115;29;20241;-62
2023/03/18 03:00:44;;;;;;;7.83;4.97;;;10.40;99.90;;;;;;4849783;29;20248;-62
2023/03/18 03:03:12;;;;;;;6.10;4.53;;;10.40;99.90;;;;;;4837100;29;20231;-62
2023/03/18 03:05:40;;;;;;;7.20;4.53;;;10.30;99.90;;;;;;4817473;29;20342;-62
2023/03/18 03:08:09;;;;;;;5.70;4.50;;;10.30;99.90;;;;;;4814206;29;20237;-62
2023/03/18 03:10:41;;;;;;;4.83;3.93;;;10.30;99.90;;;;;;4812496;29;20238;-62
2023/03/18 03:13:10;;;;;;;5.77;4.30;;;10.30;99.90;;;;;;4811023;29;20242;-62
2023/03/18 03:15:41;;;;;;;7.40;4.23;;;10.30;99.90;;;;;;4810490;29;20786;-62
2023/03/18 03:18:10;;;;;;;6.73;4.37;;;10.20;99.90;;;;;;4818433;29;20235;-62
2023/03/18 03:20:38;;;;;;;8.70;4.63;;;10.20;99.90;;;;;;4827756;29;20238;-62
2023/03/18 03:23:08;;;;;;;6.80;4.90;;;10.20;99.90;;;;;;4847878;29;20230;-62
2023/03/18 03:25:37;;;;;;;5.47;4.33;;;10.20;99.90;;;;;;4836028;29;20230;-62
2023/03/18 03:28:06;;;;;;;7.80;5.17;;;10.20;99.90;;;;;;4823390;29;20703;-62
2023/03/18 03:30:35;;;;;;;7.57;4.60;;;10.20;99.90;;;;;;4833585;29;20303;-62
2023/03/18 03:33:05;;;;;;;6.90;4.70;;;10.20;99.90;;;;;;4833448;29;20249;-62
2023/03/18 03:35:34;;;;;;;9.00;4.37;;;10.20;99.90;;;;;;4833522;29;20296;-62
2023/03/18 03:38:03;;;;;;;7.83;4.30;;;10.10;99.90;;;;;;4833944;29;20233;-62
2023/03/18 03:40:31;;;;;;;8.60;4.23;;;10.10;99.90;;;;;;4832684;29;20305;-62
2023/03/18 03:43:00;;;;;;;7.00;4.67;;;10.10;99.90;;;;;;4831762;29;20246;-62
2023/03/18 03:45:28;;;;;;;9.63;5.33;;;10.10;99.90;;;;;;4831681;29;20238;-61
2023/03/18 03:47:56;;;;;;;7.17;5.10;;;10.10;99.90;;;;;;4838245;29;20234;-62
2023/03/18 03:50:26;;;;;;;8.23;5.30;;;10.10;99.90;;;;;;4830339;29;20330;-62
2023/03/18 03:52:54;;;;;;;8.50;5.07;;;10.10;99.90;;;;;;4867539;29;20238;-62
2023/03/18 03:55:23;;;;;;;8.17;5.30;;;10.10;99.90;;;;;;4852727;29;20273;-62
2023/03/18 03:57:55;;;;;;;10.00;5.37;;;10.10;99.90;;;;;;4856514;29;20238;-61
2023/03/18 04:00:24;;;;;;;10.00;5.70;;;10.10;99.90;;;;;;4832034;29;20231;-62
2023/03/18 04:02:53;;;;;;;6.53;5.33;;;10.10;99.90;;;;;;4825111;29;20252;-62
2023/03/18 04:05:24;;;;;;;11.00;6.13;;;10.10;99.90;;;;;;4818219;29;20270;-62
2023/03/18 04:07:58;;;;;;;6.60;5.23;;;10.10;99.90;;;;;;4815312;29;20306;-62
2023/03/18 04:10:37;;;;;;;6.70;5.53;;;10.10;99.90;;;;;;4814442;29;20233;-62
2023/03/18 04:13:09;;;;;;;7.37;5.57;;;10.10;99.90;;;;;;4816152;29;20243;-63
2023/03/18 04:15:37;;;;;;;9.57;5.83;;;10.10;99.90;;;;;;4815100;29;20607;-62
2023/03/18 04:18:15;;;;;;;10.37;6.00;;;10.10;99.90;;;;;;4833408;29;20246;-63
2023/03/18 04:20:45;;;;;;;8.10;6.03;;;10.10;99.90;;;;;;4827033;29;20239;-62
2023/03/18 04:23:31;;;;;;;8.53;5.47;;;10.20;99.90;;;;;;4851572;29;20222;-62
2023/03/18 04:26:00;;;;;;;8.77;6.00;;;10.20;99.90;;;;;;4837068;29;20287;-62
2023/03/18 04:28:28;;;;;;;7.47;5.30;;;10.20;99.90;;;;;;4832082;29;20244;-62
2023/03/18 04:30:57;;;;;;;8.53;6.07;;;10.20;99.90;;;;;;4818995;29;20250;-62
2023/03/18 04:33:25;;;;;;;10.33;6.03;;;10.30;99.90;;;;;;4813838;29;20612;-61
2023/03/18 04:35:53;;;;;;;7.50;5.80;;;10.20;99.90;;;;;;4814802;29;20607;-62
2023/03/18 04:38:21;;;;;;;10.60;5.53;;;10.30;99.90;;;;;;4814366;29;20243;-62
2023/03/18 04:40:53;;;;;;;8.07;5.67;;;10.40;99.90;;;;;;4815388;29;20265;-62
2023/03/18 04:43:21;;;;;;;9.13;6.13;;;10.40;99.90;;;;;;4816302;29;20236;-62
2023/03/18 04:45:51;;;;;;;10.07;6.03;;;10.40;99.90;;;;;;4819019;29;20266;-62
2023/03/18 04:48:21;;;;;;;9.80;6.10;;;10.40;99.90;;;;;;4827549;29;20226;-62
2023/03/18 04:50:49;;;;;;;11.10;6.43;;;10.40;99.90;;;;;;4837765;29;20325;-62
2023/03/18 04:53:25;;;;;;;12.27;6.30;;;10.40;99.90;;;;;;4856231;29;20258;-62
2023/03/18 04:55:55;;;;;;;9.03;6.43;;;10.30;99.90;;;;;;4844127;29;20258;-62
2023/03/18 04:58:29;;;;;;;7.40;6.17;;;10.40;99.90;;;;;;4839344;29;20262;-62
2023/03/18 05:01:08;;;;;;;10.67;6.30;;;10.40;99.90;;;;;;4837661;29;20234;-62
2023/03/18 05:03:38;;;;;;;8.87;6.73;;;10.40;99.90;;;;;;4833960;29;20228;-62
2023/03/18 05:06:08;;;;;;;11.10;6.97;;;10.40;99.90;;;;;;4832674;29;20261;-62
2023/03/18 05:08:50;;;;;;;9.30;6.70;;;10.50;99.90;;;;;;4831643;29;20289;-62
2023/03/18 05:11:19;;;;;;;11.17;6.70;;;10.40;99.90;;;;;;4827974;29;20235;-62
2023/03/18 05:13:48;;;;;;;11.97;7.00;;;10.50;99.90;;;;;;4841986;29;20234;-62
2023/03/18 05:16:18;;;;;;;11.07;6.90;;;10.50;99.90;;;;;;4842799;29;20726;-62
2023/03/18 05:18:49;;;;;;;10.80;7.40;;;10.50;99.90;;;;;;4843948;29;20238;-62
2023/03/18 05:21:17;;;;;;;12.73;7.93;;;10.50;99.90;;;;;;4863111;29;20213;-62
2023/03/18 05:23:45;;;;;;;10.80;7.03;;;10.50;99.90;;;;;;4846285;29;20235;-62
2023/03/18 05:26:15;;;;;;;11.50;7.70;;;10.60;99.90;;;;;;4840417;29;20258;-62
2023/03/18 05:28:47;;;;;;;8.00;7.13;;;10.50;99.90;;;;;;4835683;29;20222;-62
2023/03/18 05:31:24;;;;;;;10.33;7.60;;;10.50;99.90;;;;;;4838043;29;20259;-62
2023/03/18 05:33:52;;;;;;;8.53;7.00;;;10.60;99.90;;;;;;4836150;29;20266;-62
2023/03/18 05:36:22;;;;;;;11.57;7.37;;;10.60;99.90;;;;;;4832694;29;20235;-62
2023/03/18 05:38:59;;;;;;;10.37;7.20;;;10.60;99.90;;;;;;4833898;29;20247;-62
2023/03/18 05:41:28;;;;;;;10.07;7.13;;;10.60;99.90;;;;;;4834157;29;20260;-62
2023/03/18 05:43:58;;;;;;;9.13;7.03;;;10.70;99.90;;;;;;4834139;29;20285;-62
2023/03/18 05:46:27;;;;;;;9.50;7.23;;;10.80;99.90;;;;;;4835218;29;20279;-61
2023/03/18 05:49:19;;;;;;;12.07;8.00;;;10.70;99.90;;;;;;4837012;29;20243;-62
2023/03/18 05:52:10;;;;;;;10.23;7.70;;;10.70;99.90;;;;;;4835676;29;20240;-62
2023/03/18 05:54:43;;;;;;;10.53;8.53;;;10.70;99.90;;;;;;4839339;29;20248;-62
2023/03/18 05:57:15;;;;;;;11.93;8.20;;;10.60;99.90;;;;;;4835304;29;20231;-62
2023/03/18 05:59:45;;;;;;;13.40;8.40;;;10.60;99.90;;;;;;4836757;29;20295;-62
2023/03/18 06:02:13;;;;;;;12.03;8.03;;;10.60;99.90;;;;;;4831829;29;20259;-62
2023/03/18 06:04:41;;;;;;;10.67;7.83;;;10.60;99.90;;;;;;4842312;29;20230;-62
2023/03/18 06:07:11;;;;;;;14.50;8.83;;;10.60;99.90;;;;;;4856084;29;20269;-61
2023/03/18 06:09:39;;;;;;;14.50;9.07;;;10.60;99.90;;;;;;4839645;29;20279;-62
2023/03/18 06:12:08;;;;;;;11.47;8.30;;;10.60;99.90;;;;;;4849065;29;20321;-60
2023/03/18 06:14:36;;;;;;;11.07;8.20;;;10.60;99.90;;;;;;4834231;29;20707;-62
2023/03/18 06:17:08;;;;;;;10.90;8.67;;;10.60;99.90;;;;;;4839624;29;20703;-62
2023/03/18 06:19:37;;;;;;;15.33;9.27;;;10.70;99.90;;;;;;4848121;29;20229;-62
2023/03/18 06:22:05;;;;;;;14.27;8.73;;;10.70;99.90;;;;;;4848328;29;20619;-62
2023/03/18 06:24:33;;;;;;;14.40;9.30;;;10.60;99.90;;;;;;4855172;29;20238;-62
2023/03/18 06:27:01;;;;;;;14.17;8.50;;;10.70;99.90;;;;;;4838121;29;20235;-62
2023/03/18 06:29:30;;;;;;;12.73;8.77;;;10.70;99.90;;;;;;4852704;29;20245;-62
2023/03/18 06:32:08;;;;;;;14.63;9.20;;;10.80;99.90;;;;;;4846454;29;20801;-61
2023/03/18 06:34:37;;;;;;;12.40;8.83;;;10.70;99.90;;;;;;4819458;29;20228;-62
2023/03/18 06:37:06;;;;;;;16.27;10.10;;;10.80;99.90;;;;;;4816216;29;20273;-62
2023/03/18 06:39:35;;;;;;;11.10;8.90;;;10.80;99.90;;;;;;4816414;29;20267;-62
2023/03/18 06:42:07;;;;;;;11.40;8.83;;;10.80;99.90;;;;;;4819568;29;20235;-62
2023/03/18 06:44:40;;;;;;;12.60;8.87;;;11.00;99.90;;;;;;4832487;29;20272;-62
2023/03/18 06:47:17;;;;;;;11.20;8.50;;;11.00;99.90;;;;;;4840435;29;20267;-62
2023/03/18 06:49:52;;;;;;;11.57;9.07;;;11.00;99.90;;;;;;4849834;29;20853;-62
2023/03/18 06:52:27;;;;;;;11.37;8.90;;;11.10;99.90;;;;;;4841943;29;20234;-62
2023/03/18 06:55:00;;;;;;;16.30;10.10;;;11.10;99.90;;;;;;4827074;29;20282;-61
2023/03/18 06:57:28;;;;;;;12.13;8.57;;;11.10;99.90;;;;;;4854421;29;20251;-60
2023/03/18 06:59:57;;;;;;;10.87;8.43;;;11.10;99.90;;;;;;4853596;29;20234;-62
2023/03/18 07:02:27;;;;;;;15.00;9.17;;;11.20;99.90;;;;;;4820391;29;20244;-61
2023/03/18 07:04:58;;;;;;;15.60;8.60;;;11.30;99.90;;;;;;4819922;29;20818;-62
2023/03/18 07:07:29;;;;;;;9.90;8.20;;;11.40;99.90;;;;;;4819044;29;20240;-61
2023/03/18 07:09:57;;;;;;;12.43;9.57;;;11.40;99.90;;;;;;4818083;29;20239;-62
2023/03/18 07:12:27;;;;;;;9.93;7.50;;;11.40;99.90;;;;;;4815615;29;20233;-62
2023/03/18 07:14:55;;;;;;;13.93;9.17;;;11.80;99.90;;;;;;4818230;29;20238;-62
2023/03/18 07:17:24;;;;;;;12.37;8.27;;;11.80;99.90;;;;;;4817530;29;20235;-62
2023/03/18 07:19:53;;;;;;;11.87;8.23;;;11.80;99.90;;;;;;4820961;29;20640;-62
2023/03/18 07:22:22;;;;;;;11.33;8.40;;;11.90;99.90;;;;;;4817893;29;20629;-62
2023/03/18 07:24:51;;;;;;;15.37;8.87;;;11.90;99.90;;;;;;4818004;29;20595;-62
2023/03/18 07:27:19;;;;;;;11.93;8.37;;;11.80;99.90;;;;;;4816727;29;20242;-62
2023/03/18 07:29:47;;;;;;;10.03;7.87;;;11.90;99.90;;;;;;4817745;29;20282;-62
2023/03/18 07:32:15;;;;;;;12.97;9.43;;;11.90;99.90;;;;;;4815241;29;20335;-62
2023/03/18 07:34:43;;;;;;;12.20;8.13;;;11.90;99.90;;;;;;4817940;29;20239;-62
2023/03/18 07:37:13;;;;;;;14.07;9.20;;;12.00;99.90;;;;;;4818430;29;20700;-61
2023/03/18 07:39:42;;;;;;;11.83;8.77;;;12.00;99.90;;;;;;4817370;29;20250;-62
2023/03/18 07:42:11;;;;;;;14.13;8.73;;;11.90;99.90;;;;;;4817071;29;20220;-62
2023/03/18 07:44:45;;;;;;;11.57;8.60;;;12.00;99.90;;;;;;4820227;29;20264;-61
2023/03/18 07:47:14;;;;;;;11.63;8.70;;;12.10;99.90;;;;;;4819579;29;20240;-61
2023/03/18 07:49:43;;;;;;;14.07;9.63;;;12.20;99.90;;;;;;4819733;29;20239;-62
2023/03/18 07:52:12;;;;;;;14.90;9.60;;;12.10;99.90;;;;;;4817628;29;20607;-62
2023/03/18 07:54:40;;;;;;;12.13;9.00;;;12.10;99.90;;;;;;4818456;29;20266;-62
2023/03/18 07:57:08;;;;;;;12.10;8.87;;;12.10;99.90;;;;;;4821655;29;20230;-61
2023/03/18 07:59:37;;;;;;;12.27;8.90;;;12.10;99.90;;;;;;4816976;29;20226;-62
2023/03/18 08:02:06;;;;;;;12.50;9.00;;;12.10;99.90;;;;;;4817664;29;20236;-61
2023/03/18 08:04:35;;;;;;;13.33;9.60;;;12.00;99.90;;;;;;4816982;29;20268;-61
2023/03/18 08:07:03;;;;;;;14.37;9.50;;;11.90;99.90;;;;;;4816877;29;20703;-62
2023/03/18 08:09:33;;;;;;;14.47;9.07;;;11.80;99.90;;;;;;4817700;29;20235;-62
2023/03/18 08:12:01;;;;;;;12.53;9.30;;;11.70;99.90;;;;;;4817577;29;20240;-61
2023/03/18 08:14:29;;;;;;;15.00;9.30;;;11.70;99.90;;;;;;4818051;29;20310;-61
2023/03/18 08:17:00;;;;;;;12.57;9.03;;;11.60;99.90;;;;;;4818710;29;20239;-62
2023/03/18 08:19:28;;;;;;;12.77;9.20;;;11.60;99.90;;;;;;4819718;29;20677;-61
2023/03/18 08:21:56;;;;;;;13.27;9.43;;;11.60;99.90;;;;;;4824324;29;20237;-62
2023/03/18 08:24:25;;;;;;;11.17;9.00;;;11.50;99.90;;;;;;4817080;29;20245;-61
2023/03/18 08:26:55;;;;;;;13.50;9.30;;;11.40;99.90;;;;;;4821891;29;20232;-62
2023/03/18 08:29:23;;;;;;;13.27;10.03;;;11.40;99.90;;;;;;4817878;29;20370;-62
2023/03/18 08:31:51;;;;;;;11.77;9.33;;;11.30;99.90;;;;;;4819201;29;20235;-62
2023/03/18 08:34:19;;;;;;;12.90;9.63;;;11.20;99.90;;;;;;4822443;29;20235;-62
2023/03/18 08:36:48;;;;;;;13.37;9.77;;;11.10;99.90;;;;;;4822498;29;20250;-61
2023/03/18 08:39:16;;;;;;;11.10;9.67;;;11.10;99.90;;;;;;4821498;29;20724;-62
2023/03/18 08:41:44;;;;;;;14.23;10.67;;;11.10;99.90;;;;;;4820474;29;20244;-61
2023/03/18 08:44:14;;;;;;;14.57;10.70;;;11.10;99.90;;;;;;4822446;29;20240;-60
2023/03/18 08:46:42;;;;;;;13.73;10.23;;;11.10;99.90;;;;;;4821115;29;20251;-61
2023/03/18 08:49:11;;;;;;;12.33;9.97;;;11.10;99.90;;;;;;4825212;29;20241;-61
2023/03/18 08:51:39;;;;;;;14.17;10.97;;;11.10;99.90;;;;;;4825563;29;20701;-62
2023/03/18 08:54:08;;;;;;;14.43;10.47;;;11.10;99.90;;;;;;4818210;29;20239;-62
2023/03/18 08:56:37;;;;;;;12.67;10.43;;;11.10;99.90;;;;;;4828006;29;20240;-62
2023/03/18 08:59:05;;;;;;;14.53;10.90;;;11.10;99.90;;;;;;4826168;29;20753;-60
2023/03/18 09:01:35;;;;;;;15.57;10.50;;;11.10;99.90;;;;;;4822226;29;20234;-61
2023/03/18 09:04:03;;;;;;;15.00;11.43;;;11.10;99.90;;;;;;4822437;29;20231;-61
2023/03/18 09:06:32;;;;;;;15.10;11.10;;;11.10;99.90;;;;;;4822883;29;20235;-61
2023/03/18 09:09:00;;;;;;;14.70;11.37;;;11.10;99.90;;;;;;4823831;29;20239;-61
2023/03/18 09:11:28;;;;;;;15.63;10.87;;;11.20;99.90;;;;;;4822626;29;20242;-62
2023/03/18 09:13:56;;;;;;;17.00;11.53;;;11.30;99.90;;;;;;4823159;29;20763;-61
2023/03/18 09:16:25;;;;;;;16.07;12.07;;;11.30;99.90;;;;;;4823487;29;20243;-61
2023/03/18 09:18:54;;;;;;;16.40;11.73;;;11.40;99.90;;;;;;4821833;29;20734;-62
2023/03/18 09:21:23;;;;;;;14.23;11.17;;;11.50;99.90;;;;;;4823326;29;20243;-61
2023/03/18 09:23:51;;;;;;;14.37;10.93;;;11.70;99.90;;;;;;4823272;29;20244;-62
2023/03/18 09:26:20;;;;;;;14.47;11.17;;;11.80;99.90;;;;;;4825354;29;20239;-62
2023/03/18 09:28:48;;;;;;;15.20;11.77;;;12.00;99.90;;;;;;4825260;29;20246;-61
2023/03/18 09:31:16;;;;;;;16.77;11.30;;;12.00;99.90;;;;;;4824130;29;20738;-62
2023/03/18 09:33:45;;;;;;;17.03;11.90;;;12.10;99.90;;;;;;4823374;29;20310;-60
2023/03/18 09:36:15;;;;;;;14.23;11.57;;;12.10;99.90;;;;;;4825080;29;20279;-61
2023/03/18 09:38:43;;;;;;;13.73;11.13;;;12.10;99.90;;;;;;4823694;29;20258;-62
2023/03/18 09:41:23;;;;;;;14.67;11.30;;;12.10;99.90;;;;;;4825420;29;20236;-61
2023/03/18 09:44:03;;;;;;;15.00;11.47;;;12.10;99.90;;;;;;4824817;29;20244;-59
2023/03/18 09:46:41;;;;;;;14.97;10.70;;;12.20;99.90;;;;;;4824430;29;20239;-61
2023/03/18 09:49:33;;;;;;;14.77;11.67;;;12.30;99.90;;;;;;4825528;29;20247;-61
2023/03/18 09:52:13;;;;;;;12.43;10.63;;;12.30;99.90;;;;;;4823376;29;20241;-61
2023/03/18 09:54:47;;;;;;;13.57;12.10;;;12.40;99.90;;;;;;4822768;29;20259;-62
2023/03/18 09:57:21;;;;;;;14.20;11.97;;;12.50;99.90;;;;;;4820873;29;20235;-61
2023/03/18 09:59:54;;;;;;;15.33;12.07;;;12.60;99.90;;;;;;4823413;29;20323;-62
2023/03/18 10:02:28;;;;;;;13.93;11.30;;;12.70;99.90;;;;;;4820858;29;20736;-61
2023/03/18 10:05:00;;;;;;;15.77;12.30;;;12.80;99.90;;;;;;4821618;29;20245;-62
2023/03/18 10:07:33;;;;;;;13.70;11.80;;;12.90;99.90;;;;;;4821783;29;20708;-62
2023/03/18 10:10:06;;;;;;;14.00;11.97;;;13.30;99.90;;;;;;4820305;29;20644;-61
2023/03/18 10:12:37;;;;;;;17.27;12.30;;;14.30;99.90;;;;;;4819829;29;20328;-62
2023/03/18 10:15:13;;;;;;;14.93;11.43;;;15.00;99.90;;;;;;4819293;29;20724;-61
2023/03/18 10:17:44;;;;;;;14.20;11.33;;;15.50;99.90;;;;;;4820527;29;20265;-61
2023/03/18 10:20:32;;;;;;;14.03;11.57;;;16.00;99.90;;;;;;4820849;29;20327;-62
2023/03/18 10:23:11;;;;;;;13.47;11.60;;;16.60;99.90;;;;;;4821190;29;20228;-61
2023/03/18 10:25:43;;;;;;;16.43;11.10;;;16.90;99.90;;;;;;4820746;29;20292;-61
2023/03/18 10:28:36;;;;;;;17.23;10.60;;;17.00;99.90;;;;;;4820693;29;20228;-61
2023/03/18 10:31:16;;;;;;;12.40;10.23;;;17.20;99.90;;;;;;4820470;29;20248;-61
2023/03/18 10:33:50;;;;;;;12.80;10.07;;;17.00;99.90;;;;;;4819453;29;20237;-61
2023/03/18 10:36:22;;;;;;;11.13;9.23;;;17.00;99.90;;;;;;4820052;29;20589;-60
2023/03/18 10:38:55;;;;;;;12.97;9.53;;;16.90;99.90;;;;;;4820960;29;20650;-61
2023/03/18 10:41:25;;;;;;;13.20;10.23;;;16.90;99.90;;;;;;4820522;29;20244;-61
2023/03/18 10:43:57;;;;;;;12.10;10.37;;;16.40;99.90;;;;;;4820192;29;20715;-61
2023/03/18 10:46:27;;;;;;;11.10;9.00;;;16.70;99.90;;;;;;4820251;29;20242;-61
2023/03/18 10:49:00;;;;;;;13.17;9.40;;;17.20;99.90;;;;;;4820187;29;20232;-61
2023/03/18 10:51:32;;;;;;;10.57;9.23;;;17.40;99.90;;;;;;4820304;29;20233;-61
2023/03/18 10:54:09;;;;;;;10.97;8.07;;;17.20;99.90;;;;;;4819828;29;20698;-61
2023/03/18 10:56:37;;;;;;;10.60;8.40;;;16.90;99.90;;;;;;4820241;29;20232;-61
2023/03/18 10:59:14;;;;;;;12.93;8.83;;;16.60;99.90;;;;;;4819410;29;20249;-61
2023/03/18 11:01:44;;;;;;;12.27;8.67;;;16.60;99.90;;;;;;4819654;29;20310;-61
2023/03/18 11:04:14;;;;;;;9.60;8.27;;;16.60;99.90;;;;;;4820836;29;20290;-61
2023/03/18 11:06:47;;;;;;;10.70;7.97;;;17.00;99.90;;;;;;4820531;29;20726;-60
2023/03/18 11:09:19;;;;;;;14.27;8.83;;;17.40;99.90;;;;;;4820481;29;20252;-61
2023/03/18 11:11:48;;;;;;;11.93;8.20;;;17.60;99.90;;;;;;4821547;29;20256;-60
2023/03/18 11:14:21;;;;;;;10.13;8.37;;;17.80;99.90;;;;;;4819857;29;20264;-59
2023/03/18 11:16:56;;;;;;;11.53;8.27;;;17.90;99.90;;;;;;4820058;29;20232;-60
2023/03/18 11:19:31;;;;;;;10.30;8.17;;;17.40;99.90;;;;;;4819926;29;20268;-60
2023/03/18 11:22:19;;;;;;;9.87;7.90;;;17.20;99.90;;;;;;4820224;29;20230;-60
2023/03/18 11:25:01;;;;;;;12.80;8.73;;;17.10;99.90;;;;;;4818601;29;20691;-60
2023/03/18 11:27:37;;;;;;;12.40;8.37;;;17.10;99.90;;;;;;4818073;29;20243;-61
2023/03/18 11:30:17;;;;;;;10.17;8.07;;;17.20;99.90;;;;;;4819536;29;20745;-60
2023/03/18 11:33:05;;;;;;;11.90;7.37;;;17.60;99.90;;;;;;4819762;29;20329;-61
2023/03/18 11:35:39;;;;;;;8.40;7.43;;;18.10;99.90;;;;;;4819250;29;20711;-59
2023/03/18 11:38:15;;;;;;;8.07;6.80;;;18.70;99.90;;;;;;4819511;29;20232;-59
2023/03/18 11:40:45;;;;;;;11.87;7.93;;;18.80;99.90;;;;;;4819639;29;20242;-60
2023/03/18 11:43:18;;;;;;;9.33;6.83;;;18.90;99.90;;;;;;4819632;29;20565;-60
2023/03/18 11:45:50;;;;;;;8.10;6.60;;;18.90;99.90;;;;;;4819488;29;20251;-60
2023/03/18 11:48:29;;;;;;;8.50;6.63;;;19.30;99.90;;;;;;4818922;29;20293;-60
2023/03/18 11:51:25;;;;;;;8.03;6.37;;;19.50;99.90;;;;;;4820045;29;20850;-60
2023/03/18 11:54:14;;;;;;;9.20;6.00;;;19.10;99.90;;;;;;4818797;29;20295;-60
2023/03/18 11:56:46;;;;;;;7.40;5.33;;;18.90;99.90;;;;;;4819444;29;20231;-60
2023/03/18 11:59:32;;;;;;;8.27;5.97;;;18.90;99.90;;;;;;4821393;29;20255;-60
2023/03/18 12:02:16;;;;;;;9.13;6.30;;;18.60;99.90;;;;;;4818730;29;20250;-60
2023/03/18 12:05:06;;;;;;;7.60;5.73;;;18.20;99.90;;;;;;4819673;29;20656;-60
2023/03/18 12:07:56;;;;;;;8.53;5.80;;;18.00;99.90;;;;;;4819654;29;20235;-60
2023/03/18 12:10:31;;;;;;;8.80;6.57;;;17.90;99.90;;;;;;4822593;29;20597;-61
2023/03/18 12:13:18;;;;;;;8.73;5.70;;;17.60;99.90;;;;;;4822166;29;20242;-60
2023/03/18 12:15:54;;;;;;;8.47;5.90;;;17.40;99.90;;;;;;4822386;29;20233;-59
2023/03/18 12:18:38;;;;;;;8.80;6.23;;;17.40;99.90;;;;;;4822599;29;20247;-60
2023/03/18 12:21:25;;;;;;;7.47;6.33;;;17.40;99.90;;;;;;4822245;29;20576;-60
2023/03/18 12:24:21;;;;;;;8.63;6.50;;;17.30;99.90;;;;;;4822368;29;20235;-60
2023/03/18 12:26:58;;;;;;;10.23;6.57;;;17.20;99.90;;;;;;4823265;29;20575;-60
2023/03/18 12:29:48;;;;;;;11.67;8.23;;;17.10;99.90;;;;;;4822316;29;20278;-60
2023/03/18 12:32:26;;;;;;;9.77;7.17;;;16.90;99.90;;;;;;4821907;29;20237;-61
2023/03/18 12:35:10;;;;;;;9.47;8.07;;;16.80;99.90;;;;;;4822676;29;20244;-60
2023/03/18 12:37:51;;;;;;;10.67;9.50;;;16.80;99.90;;;;;;4822159;29;20257;-61
2023/03/18 12:40:45;;;;;;;13.43;11.07;;;16.70;99.90;;;;;;4821667;29;20307;-61
2023/03/18 12:43:39;;;;;;;14.37;11.33;;;16.60;99.90;;;;;;4822473;29;20228;-61
2023/03/18 12:46:20;;;;;;;12.87;11.27;;;16.50;99.90;;;;;;4821498;29;20241;-61
2023/03/18 12:48:52;;;;;;;13.97;11.40;;;16.70;99.90;;;;;;4821308;29;20237;-60
2023/03/18 12:51:26;;;;;;;13.67;11.73;;;16.90;99.90;;;;;;4821879;29;20249;-61
2023/03/18 12:53:58;;;;;;;14.10;11.33;;;17.00;99.90;;;;;;4821979;29;20636;-61
2023/03/18 12:56:29;;;;;;;13.83;10.87;;;17.10;99.90;;;;;;4822298;29;20810;-60
2023/03/18 12:59:08;;;;;;;14.00;10.83;;;17.20;99.90;;;;;;4823277;29;20243;-61
2023/03/18 13:01:44;;;;;;;15.43;11.73;;;17.30;99.90;;;;;;4825233;29;20237;-61
2023/03/18 13:04:16;;;;;;;15.03;11.63;;;17.50;99.90;;;;;;4824311;29;20231;-61